sensor_id;sensor_type;location;lat;lon;timestamp;P1;durP1;ratioP1;P2;durP2;ratioP2
58240;SDS011;45058;55.772;38.224;2023-06-26T00:00:51;48.55;;;33.47;;
58240;SDS011;45058;55.772;38.224;2023-06-26T00:03:17;51.42;;;31.65;;
58240;SDS011;45058;55.772;38.224;2023-06-26T00:05:43;47.03;;;31.50;;
58240;SDS011;45058;55.772;38.224;2023-06-26T00:08:09;48.28;;;32.63;;
58240;SDS011;45058;55.772;38.224;2023-06-26T00:10:35;38.70;;;31.48;;
58240;SDS011;45058;55.772;38.224;2023-06-26T00:13:01;46.28;;;31.67;;
58240;SDS011;45058;55.772;38.224;2023-06-26T00:15:28;41.75;;;31.70;;
58240;SDS011;45058;55.772;38.224;2023-06-26T00:18:00;40.22;;;29.65;;
58240;SDS011;45058;55.772;38.224;2023-06-26T00:20:29;37.50;;;28.90;;
58240;SDS011;45058;55.772;38.224;2023-06-26T00:22:55;37.08;;;29.25;;
58240;SDS011;45058;55.772;38.224;2023-06-26T00:25:24;41.53;;;29.48;;
58240;SDS011;45058;55.772;38.224;2023-06-26T00:27:50;44.15;;;29.63;;
58240;SDS011;45058;55.772;38.224;2023-06-26T00:30:16;40.53;;;28.75;;
58240;SDS011;45058;55.772;38.224;2023-06-26T00:32:42;40.65;;;28.10;;
58240;SDS011;45058;55.772;38.224;2023-06-26T00:35:08;44.97;;;29.58;;
58240;SDS011;45058;55.772;38.224;2023-06-26T00:37:34;37.53;;;29.50;;
58240;SDS011;45058;55.772;38.224;2023-06-26T00:40:00;39.35;;;27.70;;
58240;SDS011;45058;55.772;38.224;2023-06-26T00:42:29;39.80;;;27.85;;
58240;SDS011;45058;55.772;38.224;2023-06-26T00:44:55;36.53;;;27.60;;
58240;SDS011;45058;55.772;38.224;2023-06-26T00:47:22;40.63;;;27.63;;
58240;SDS011;45058;55.772;38.224;2023-06-26T00:49:48;39.78;;;26.70;;
58240;SDS011;45058;55.772;38.224;2023-06-26T00:52:14;40.33;;;27.48;;
58240;SDS011;45058;55.772;38.224;2023-06-26T00:54:42;38.40;;;27.73;;
58240;SDS011;45058;55.772;38.224;2023-06-26T00:57:09;35.83;;;27.38;;
58240;SDS011;45058;55.772;38.224;2023-06-26T00:59:35;36.17;;;26.25;;
58240;SDS011;45058;55.772;38.224;2023-06-26T01:02:01;34.08;;;26.80;;
58240;SDS011;45058;55.772;38.224;2023-06-26T01:04:27;41.03;;;26.15;;
58240;SDS011;45058;55.772;38.224;2023-06-26T01:06:58;42.05;;;26.90;;
58240;SDS011;45058;55.772;38.224;2023-06-26T01:09:25;39.50;;;26.33;;
58240;SDS011;45058;55.772;38.224;2023-06-26T01:11:51;35.10;;;25.85;;
58240;SDS011;45058;55.772;38.224;2023-06-26T01:14:18;34.63;;;24.80;;
58240;SDS011;45058;55.772;38.224;2023-06-26T01:16:44;36.47;;;25.08;;
58240;SDS011;45058;55.772;38.224;2023-06-26T01:19:19;41.95;;;25.70;;
58240;SDS011;45058;55.772;38.224;2023-06-26T01:21:56;39.67;;;27.10;;
58240;SDS011;45058;55.772;38.224;2023-06-26T01:24:25;43.90;;;28.52;;
58240;SDS011;45058;55.772;38.224;2023-06-26T01:26:53;49.50;;;30.75;;
58240;SDS011;45058;55.772;38.224;2023-06-26T01:29:19;48.90;;;31.83;;
58240;SDS011;45058;55.772;38.224;2023-06-26T01:31:49;45.65;;;32.42;;
58240;SDS011;45058;55.772;38.224;2023-06-26T01:34:16;47.08;;;32.05;;
58240;SDS011;45058;55.772;38.224;2023-06-26T01:36:44;46.17;;;32.47;;
58240;SDS011;45058;55.772;38.224;2023-06-26T01:39:15;50.20;;;33.55;;
58240;SDS011;45058;55.772;38.224;2023-06-26T01:41:43;40.22;;;31.10;;
58240;SDS011;45058;55.772;38.224;2023-06-26T01:47:01;39.17;;;27.75;;
58240;SDS011;45058;55.772;38.224;2023-06-26T01:49:31;42.28;;;27.65;;
58240;SDS011;45058;55.772;38.224;2023-06-26T01:55:17;41.67;;;28.15;;
58240;SDS011;45058;55.772;38.224;2023-06-26T01:57:47;47.17;;;28.90;;
58240;SDS011;45058;55.772;38.224;2023-06-26T02:00:17;48.30;;;26.52;;
58240;SDS011;45058;55.772;38.224;2023-06-26T02:02:44;45.50;;;25.70;;
58240;SDS011;45058;55.772;38.224;2023-06-26T02:05:13;48.65;;;27.85;;
58240;SDS011;45058;55.772;38.224;2023-06-26T02:07:40;41.53;;;25.38;;
58240;SDS011;45058;55.772;38.224;2023-06-26T02:10:06;38.65;;;24.83;;
58240;SDS011;45058;55.772;38.224;2023-06-26T02:12:34;36.95;;;23.38;;
58240;SDS011;45058;55.772;38.224;2023-06-26T02:15:02;39.63;;;25.52;;
58240;SDS011;45058;55.772;38.224;2023-06-26T02:17:32;42.65;;;23.23;;
58240;SDS011;45058;55.772;38.224;2023-06-26T02:19:58;38.03;;;22.63;;
58240;SDS011;45058;55.772;38.224;2023-06-26T02:22:24;40.58;;;23.02;;
58240;SDS011;45058;55.772;38.224;2023-06-26T02:24:54;38.30;;;23.42;;
58240;SDS011;45058;55.772;38.224;2023-06-26T02:27:20;44.63;;;24.20;;
58240;SDS011;45058;55.772;38.224;2023-06-26T02:29:46;31.15;;;21.83;;
58240;SDS011;45058;55.772;38.224;2023-06-26T02:32:12;36.17;;;23.40;;
58240;SDS011;45058;55.772;38.224;2023-06-26T02:34:38;39.35;;;23.10;;
58240;SDS011;45058;55.772;38.224;2023-06-26T02:37:03;33.92;;;24.20;;
58240;SDS011;45058;55.772;38.224;2023-06-26T02:39:33;33.10;;;22.27;;
58240;SDS011;45058;55.772;38.224;2023-06-26T02:42:00;34.28;;;20.85;;
58240;SDS011;45058;55.772;38.224;2023-06-26T02:44:27;29.55;;;19.83;;
58240;SDS011;45058;55.772;38.224;2023-06-26T02:46:53;28.38;;;19.95;;
58240;SDS011;45058;55.772;38.224;2023-06-26T02:49:19;35.80;;;20.25;;
58240;SDS011;45058;55.772;38.224;2023-06-26T02:51:45;30.13;;;20.48;;
58240;SDS011;45058;55.772;38.224;2023-06-26T02:54:18;26.88;;;19.90;;
58240;SDS011;45058;55.772;38.224;2023-06-26T02:56:47;28.75;;;19.77;;
58240;SDS011;45058;55.772;38.224;2023-06-26T02:59:14;26.13;;;18.85;;
58240;SDS011;45058;55.772;38.224;2023-06-26T03:01:40;28.25;;;19.77;;
58240;SDS011;45058;55.772;38.224;2023-06-26T03:04:07;28.60;;;18.92;;
58240;SDS011;45058;55.772;38.224;2023-06-26T03:06:33;28.88;;;19.38;;
58240;SDS011;45058;55.772;38.224;2023-06-26T03:08:59;30.95;;;17.52;;
58240;SDS011;45058;55.772;38.224;2023-06-26T03:11:25;27.58;;;18.50;;
58240;SDS011;45058;55.772;38.224;2023-06-26T03:13:51;24.88;;;18.33;;
58240;SDS011;45058;55.772;38.224;2023-06-26T03:16:17;29.48;;;17.65;;
58240;SDS011;45058;55.772;38.224;2023-06-26T03:18:43;29.45;;;18.13;;
58240;SDS011;45058;55.772;38.224;2023-06-26T03:21:09;25.90;;;18.05;;
58240;SDS011;45058;55.772;38.224;2023-06-26T03:23:35;26.35;;;17.10;;
58240;SDS011;45058;55.772;38.224;2023-06-26T03:26:01;28.75;;;18.67;;
58240;SDS011;45058;55.772;38.224;2023-06-26T03:28:33;25.95;;;17.17;;
58240;SDS011;45058;55.772;38.224;2023-06-26T03:30:59;30.73;;;17.40;;
58240;SDS011;45058;55.772;38.224;2023-06-26T03:33:25;27.60;;;16.13;;
58240;SDS011;45058;55.772;38.224;2023-06-26T03:35:53;24.48;;;15.90;;
58240;SDS011;45058;55.772;38.224;2023-06-26T03:38:21;29.70;;;16.27;;
58240;SDS011;45058;55.772;38.224;2023-06-26T03:40:48;28.58;;;16.23;;
58240;SDS011;45058;55.772;38.224;2023-06-26T03:43:16;26.30;;;16.70;;
58240;SDS011;45058;55.772;38.224;2023-06-26T03:48:15;30.30;;;16.55;;
58240;SDS011;45058;55.772;38.224;2023-06-26T03:50:41;24.67;;;15.65;;
58240;SDS011;45058;55.772;38.224;2023-06-26T03:53:07;28.35;;;16.23;;
58240;SDS011;45058;55.772;38.224;2023-06-26T03:55:33;24.92;;;17.08;;
58240;SDS011;45058;55.772;38.224;2023-06-26T03:57:59;33.03;;;17.65;;
58240;SDS011;45058;55.772;38.224;2023-06-26T04:00:27;32.78;;;16.65;;
58240;SDS011;45058;55.772;38.224;2023-06-26T04:02:54;23.00;;;16.13;;
58240;SDS011;45058;55.772;38.224;2023-06-26T04:05:20;29.25;;;17.30;;
58240;SDS011;45058;55.772;38.224;2023-06-26T04:07:49;28.50;;;15.65;;
58240;SDS011;45058;55.772;38.224;2023-06-26T04:10:16;25.13;;;15.00;;
58240;SDS011;45058;55.772;38.224;2023-06-26T04:12:42;25.77;;;15.55;;
58240;SDS011;45058;55.772;38.224;2023-06-26T04:15:08;24.35;;;15.15;;
58240;SDS011;45058;55.772;38.224;2023-06-26T04:17:35;23.48;;;15.27;;
58240;SDS011;45058;55.772;38.224;2023-06-26T04:20:01;30.08;;;14.73;;
58240;SDS011;45058;55.772;38.224;2023-06-26T04:22:32;25.58;;;14.77;;
58240;SDS011;45058;55.772;38.224;2023-06-26T04:25:01;23.33;;;14.45;;
58240;SDS011;45058;55.772;38.224;2023-06-26T04:27:30;27.92;;;15.10;;
58240;SDS011;45058;55.772;38.224;2023-06-26T04:29:57;27.38;;;15.20;;
58240;SDS011;45058;55.772;38.224;2023-06-26T04:32:23;26.00;;;13.35;;
58240;SDS011;45058;55.772;38.224;2023-06-26T04:34:49;27.50;;;14.43;;
58240;SDS011;45058;55.772;38.224;2023-06-26T04:37:15;21.98;;;12.65;;
58240;SDS011;45058;55.772;38.224;2023-06-26T04:39:44;22.50;;;13.15;;
58240;SDS011;45058;55.772;38.224;2023-06-26T04:42:10;15.82;;;12.45;;
58240;SDS011;45058;55.772;38.224;2023-06-26T04:44:39;18.17;;;11.98;;
58240;SDS011;45058;55.772;38.224;2023-06-26T04:47:07;20.92;;;11.75;;
58240;SDS011;45058;55.772;38.224;2023-06-26T04:49:33;17.00;;;12.70;;
58240;SDS011;45058;55.772;38.224;2023-06-26T04:51:59;18.02;;;11.80;;
58240;SDS011;45058;55.772;38.224;2023-06-26T04:54:26;16.88;;;11.20;;
58240;SDS011;45058;55.772;38.224;2023-06-26T04:56:53;23.80;;;11.52;;
58240;SDS011;45058;55.772;38.224;2023-06-26T04:59:19;17.55;;;11.35;;
58240;SDS011;45058;55.772;38.224;2023-06-26T05:01:46;21.13;;;12.10;;
58240;SDS011;45058;55.772;38.224;2023-06-26T05:04:26;14.13;;;11.80;;
58240;SDS011;45058;55.772;38.224;2023-06-26T05:06:52;15.15;;;11.88;;
58240;SDS011;45058;55.772;38.224;2023-06-26T05:09:18;23.77;;;11.45;;
58240;SDS011;45058;55.772;38.224;2023-06-26T05:11:44;14.88;;;10.82;;
58240;SDS011;45058;55.772;38.224;2023-06-26T05:14:10;15.20;;;10.82;;
58240;SDS011;45058;55.772;38.224;2023-06-26T05:16:36;14.55;;;9.55;;
58240;SDS011;45058;55.772;38.224;2023-06-26T05:19:20;12.60;;;8.63;;
58240;SDS011;45058;55.772;38.224;2023-06-26T05:21:46;14.07;;;8.70;;
58240;SDS011;45058;55.772;38.224;2023-06-26T05:24:13;10.30;;;8.38;;
58240;SDS011;45058;55.772;38.224;2023-06-26T05:26:41;11.50;;;8.95;;
58240;SDS011;45058;55.772;38.224;2023-06-26T05:29:08;13.93;;;8.95;;
58240;SDS011;45058;55.772;38.224;2023-06-26T05:31:46;10.48;;;8.32;;
58240;SDS011;45058;55.772;38.224;2023-06-26T05:34:13;10.57;;;8.45;;
58240;SDS011;45058;55.772;38.224;2023-06-26T05:36:39;12.73;;;7.70;;
58240;SDS011;45058;55.772;38.224;2023-06-26T05:39:08;19.23;;;8.80;;
58240;SDS011;45058;55.772;38.224;2023-06-26T05:41:34;12.30;;;8.38;;
58240;SDS011;45058;55.772;38.224;2023-06-26T05:44:13;12.65;;;8.10;;
58240;SDS011;45058;55.772;38.224;2023-06-26T05:46:39;10.90;;;7.43;;
58240;SDS011;45058;55.772;38.224;2023-06-26T05:51:30;12.68;;;9.40;;
58240;SDS011;45058;55.772;38.224;2023-06-26T05:54:09;5.20;;;3.20;;
58240;SDS011;45058;55.772;38.224;2023-06-26T05:56:37;19.80;;;9.20;;
58240;SDS011;45058;55.772;38.224;2023-06-26T05:59:03;12.85;;;9.02;;
58240;SDS011;45058;55.772;38.224;2023-06-26T06:01:31;11.25;;;7.80;;
58240;SDS011;45058;55.772;38.224;2023-06-26T06:03:59;20.23;;;8.90;;
58240;SDS011;45058;55.772;38.224;2023-06-26T06:06:25;23.75;;;9.07;;
58240;SDS011;45058;55.772;38.224;2023-06-26T14:49:46;9.87;;;4.80;;
58240;SDS011;45058;55.772;38.224;2023-06-26T14:52:13;7.65;;;4.55;;
58240;SDS011;45058;55.772;38.224;2023-06-26T14:54:39;8.07;;;4.22;;
58240;SDS011;45058;55.772;38.224;2023-06-26T14:57:08;5.78;;;4.55;;
58240;SDS011;45058;55.772;38.224;2023-06-26T14:59:34;9.38;;;4.20;;
58240;SDS011;45058;55.772;38.224;2023-06-26T15:02:01;7.78;;;4.60;;
58240;SDS011;45058;55.772;38.224;2023-06-26T15:04:27;7.57;;;4.40;;
58240;SDS011;45058;55.772;38.224;2023-06-26T15:06:54;8.88;;;4.53;;
58240;SDS011;45058;55.772;38.224;2023-06-26T15:09:22;7.38;;;4.63;;
58240;SDS011;45058;55.772;38.224;2023-06-26T15:11:49;11.45;;;5.15;;
58240;SDS011;45058;55.772;38.224;2023-06-26T15:14:27;14.27;;;4.82;;
58240;SDS011;45058;55.772;38.224;2023-06-26T15:16:53;11.30;;;5.25;;
58240;SDS011;45058;55.772;38.224;2023-06-26T15:19:19;13.32;;;4.75;;
58240;SDS011;45058;55.772;38.224;2023-06-26T15:21:46;8.85;;;5.47;;
58240;SDS011;45058;55.772;38.224;2023-06-26T15:24:12;9.95;;;4.95;;
58240;SDS011;45058;55.772;38.224;2023-06-26T15:26:38;9.55;;;5.65;;
58240;SDS011;45058;55.772;38.224;2023-06-26T15:29:16;10.77;;;6.20;;
58240;SDS011;45058;55.772;38.224;2023-06-26T15:31:43;11.25;;;6.18;;
58240;SDS011;45058;55.772;38.224;2023-06-26T15:34:09;11.77;;;6.18;;
58240;SDS011;45058;55.772;38.224;2023-06-26T15:36:36;12.77;;;6.63;;
58240;SDS011;45058;55.772;38.224;2023-06-26T15:39:02;10.15;;;6.43;;
58240;SDS011;45058;55.772;38.224;2023-06-26T15:41:28;9.40;;;6.18;;
58240;SDS011;45058;55.772;38.224;2023-06-26T15:43:54;12.55;;;6.85;;
58240;SDS011;45058;55.772;38.224;2023-06-26T15:46:20;9.10;;;6.53;;
58240;SDS011;45058;55.772;38.224;2023-06-26T15:48:59;8.93;;;6.22;;
58240;SDS011;45058;55.772;38.224;2023-06-26T15:51:25;10.32;;;7.00;;
58240;SDS011;45058;55.772;38.224;2023-06-26T15:53:51;13.68;;;5.90;;
58240;SDS011;45058;55.772;38.224;2023-06-26T15:56:18;11.02;;;6.25;;
58240;SDS011;45058;55.772;38.224;2023-06-26T15:58:44;11.82;;;6.20;;
58240;SDS011;45058;55.772;38.224;2023-06-26T16:01:12;9.82;;;5.93;;
58240;SDS011;45058;55.772;38.224;2023-06-26T16:03:39;16.08;;;6.80;;
58240;SDS011;45058;55.772;38.224;2023-06-26T16:06:06;14.55;;;6.35;;
58240;SDS011;45058;55.772;38.224;2023-06-26T16:08:36;14.35;;;5.80;;
58240;SDS011;45058;55.772;38.224;2023-06-26T16:11:14;12.18;;;5.50;;
58240;SDS011;45058;55.772;38.224;2023-06-26T16:13:41;12.32;;;6.03;;
58240;SDS011;45058;55.772;38.224;2023-06-26T16:16:09;14.18;;;6.20;;
58240;SDS011;45058;55.772;38.224;2023-06-26T16:18:35;19.08;;;6.03;;
58240;SDS011;45058;55.772;38.224;2023-06-26T16:21:13;12.38;;;5.60;;
58240;SDS011;45058;55.772;38.224;2023-06-26T16:23:40;15.70;;;5.90;;
58240;SDS011;45058;55.772;38.224;2023-06-26T16:26:07;7.35;;;4.55;;
58240;SDS011;45058;55.772;38.224;2023-06-26T16:28:33;10.13;;;4.53;;
58240;SDS011;45058;55.772;38.224;2023-06-26T16:31:11;10.73;;;4.95;;
58240;SDS011;45058;55.772;38.224;2023-06-26T16:33:38;10.88;;;5.15;;
58240;SDS011;45058;55.772;38.224;2023-06-26T16:36:04;10.23;;;5.43;;
58240;SDS011;45058;55.772;38.224;2023-06-26T16:38:42;9.70;;;4.95;;
58240;SDS011;45058;55.772;38.224;2023-06-26T16:41:09;8.60;;;4.85;;
58240;SDS011;45058;55.772;38.224;2023-06-26T16:43:35;12.98;;;5.18;;
58240;SDS011;45058;55.772;38.224;2023-06-26T16:46:01;8.40;;;5.22;;
58240;SDS011;45058;55.772;38.224;2023-06-26T16:48:28;10.68;;;5.10;;
58240;SDS011;45058;55.772;38.224;2023-06-26T16:50:54;9.02;;;5.60;;
58240;SDS011;45058;55.772;38.224;2023-06-26T16:53:20;13.32;;;5.70;;
58240;SDS011;45058;55.772;38.224;2023-06-26T16:55:46;8.43;;;5.25;;
58240;SDS011;45058;55.772;38.224;2023-06-26T16:58:14;11.60;;;5.90;;
58240;SDS011;45058;55.772;38.224;2023-06-26T17:00:40;9.23;;;5.88;;
58240;SDS011;45058;55.772;38.224;2023-06-26T17:03:06;10.32;;;6.00;;
58240;SDS011;45058;55.772;38.224;2023-06-26T17:05:32;8.98;;;5.72;;
58240;SDS011;45058;55.772;38.224;2023-06-26T17:07:58;10.20;;;6.20;;
58240;SDS011;45058;55.772;38.224;2023-06-26T17:10:25;10.73;;;6.05;;
58240;SDS011;45058;55.772;38.224;2023-06-26T17:13:03;9.80;;;6.15;;
58240;SDS011;45058;55.772;38.224;2023-06-26T17:15:29;13.02;;;6.63;;
58240;SDS011;45058;55.772;38.224;2023-06-26T17:17:55;18.80;;;7.72;;
58240;SDS011;45058;55.772;38.224;2023-06-26T17:20:21;30.58;;;20.80;;
58240;SDS011;45058;55.772;38.224;2023-06-26T17:22:48;33.45;;;25.65;;
58240;SDS011;45058;55.772;38.224;2023-06-26T17:25:14;11.38;;;7.40;;
58240;SDS011;45058;55.772;38.224;2023-06-26T17:27:41;9.35;;;6.13;;
58240;SDS011;45058;55.772;38.224;2023-06-26T17:30:07;23.95;;;6.07;;
58240;SDS011;45058;55.772;38.224;2023-06-26T17:32:34;10.77;;;5.85;;
58240;SDS011;45058;55.772;38.224;2023-06-26T17:35:00;12.20;;;5.85;;
58240;SDS011;45058;55.772;38.224;2023-06-26T17:37:30;13.93;;;5.95;;
58240;SDS011;45058;55.772;38.224;2023-06-26T17:39:56;12.27;;;6.65;;
58240;SDS011;45058;55.772;38.224;2023-06-26T17:42:22;9.55;;;5.63;;
58240;SDS011;45058;55.772;38.224;2023-06-26T17:44:49;8.75;;;6.55;;
58240;SDS011;45058;55.772;38.224;2023-06-26T17:47:15;10.75;;;5.53;;
58240;SDS011;45058;55.772;38.224;2023-06-26T17:49:41;10.95;;;5.63;;
58240;SDS011;45058;55.772;38.224;2023-06-26T17:52:08;10.15;;;5.45;;
58240;SDS011;45058;55.772;38.224;2023-06-26T17:54:46;6.40;;;5.35;;
58240;SDS011;45058;55.772;38.224;2023-06-26T17:57:12;8.15;;;6.32;;
58240;SDS011;45058;55.772;38.224;2023-06-26T17:59:38;8.35;;;5.97;;
58240;SDS011;45058;55.772;38.224;2023-06-26T18:02:05;10.07;;;5.40;;
58240;SDS011;45058;55.772;38.224;2023-06-26T18:04:32;7.55;;;5.20;;
58240;SDS011;45058;55.772;38.224;2023-06-26T18:06:58;16.30;;;5.43;;
58240;SDS011;45058;55.772;38.224;2023-06-26T18:09:24;9.93;;;5.97;;
58240;SDS011;45058;55.772;38.224;2023-06-26T18:11:50;13.52;;;6.35;;
58240;SDS011;45058;55.772;38.224;2023-06-26T18:14:17;9.25;;;6.00;;
58240;SDS011;45058;55.772;38.224;2023-06-26T18:16:43;10.23;;;6.18;;
58240;SDS011;45058;55.772;38.224;2023-06-26T18:19:10;8.15;;;5.43;;
58240;SDS011;45058;55.772;38.224;2023-06-26T18:21:36;8.90;;;5.80;;
58240;SDS011;45058;55.772;38.224;2023-06-26T18:24:21;16.67;;;6.47;;
58240;SDS011;45058;55.772;38.224;2023-06-26T18:26:47;11.25;;;6.00;;
58240;SDS011;45058;55.772;38.224;2023-06-26T18:29:14;12.27;;;6.15;;
58240;SDS011;45058;55.772;38.224;2023-06-26T18:31:40;8.55;;;5.85;;
58240;SDS011;45058;55.772;38.224;2023-06-26T18:34:06;8.80;;;6.15;;
58240;SDS011;45058;55.772;38.224;2023-06-26T18:36:45;11.73;;;5.93;;
58240;SDS011;45058;55.772;38.224;2023-06-26T18:39:27;7.40;;;5.72;;
58240;SDS011;45058;55.772;38.224;2023-06-26T18:41:53;21.63;;;7.03;;
58240;SDS011;45058;55.772;38.224;2023-06-26T18:44:31;38.30;;;6.47;;
58240;SDS011;45058;55.772;38.224;2023-06-26T18:46:58;20.85;;;6.63;;
58240;SDS011;45058;55.772;38.224;2023-06-26T18:49:27;10.45;;;6.03;;
58240;SDS011;45058;55.772;38.224;2023-06-26T18:51:53;13.15;;;5.80;;
58240;SDS011;45058;55.772;38.224;2023-06-26T18:54:20;12.05;;;6.63;;
58240;SDS011;45058;55.772;38.224;2023-06-26T18:56:47;11.13;;;6.55;;
58240;SDS011;45058;55.772;38.224;2023-06-26T18:59:13;11.82;;;6.03;;
58240;SDS011;45058;55.772;38.224;2023-06-26T19:01:52;14.18;;;6.95;;
58240;SDS011;45058;55.772;38.224;2023-06-26T19:04:19;15.98;;;8.98;;
58240;SDS011;45058;55.772;38.224;2023-06-26T19:06:47;16.45;;;8.57;;
58240;SDS011;45058;55.772;38.224;2023-06-26T19:09:13;19.95;;;8.85;;
58240;SDS011;45058;55.772;38.224;2023-06-26T19:11:39;20.42;;;9.27;;
58240;SDS011;45058;55.772;38.224;2023-06-26T19:14:06;9.63;;;7.30;;
58240;SDS011;45058;55.772;38.224;2023-06-26T19:16:32;14.77;;;7.38;;
58240;SDS011;45058;55.772;38.224;2023-06-26T19:18:58;18.98;;;7.88;;
58240;SDS011;45058;55.772;38.224;2023-06-26T19:21:26;14.70;;;7.40;;
58240;SDS011;45058;55.772;38.224;2023-06-26T19:23:53;17.58;;;8.02;;
58240;SDS011;45058;55.772;38.224;2023-06-26T19:26:20;13.60;;;7.78;;
58240;SDS011;45058;55.772;38.224;2023-06-26T19:28:47;16.60;;;8.10;;
58240;SDS011;45058;55.772;38.224;2023-06-26T19:31:26;15.23;;;6.97;;
58240;SDS011;45058;55.772;38.224;2023-06-26T19:34:04;11.50;;;7.50;;
58240;SDS011;45058;55.772;38.224;2023-06-26T19:36:30;14.27;;;6.93;;
58240;SDS011;45058;55.772;38.224;2023-06-26T19:38:56;15.40;;;7.55;;
58240;SDS011;45058;55.772;38.224;2023-06-26T19:41:23;14.40;;;7.25;;
58240;SDS011;45058;55.772;38.224;2023-06-26T19:43:49;12.73;;;6.65;;
58240;SDS011;45058;55.772;38.224;2023-06-26T19:46:15;12.48;;;7.10;;
58240;SDS011;45058;55.772;38.224;2023-06-26T19:48:41;11.75;;;6.78;;
58240;SDS011;45058;55.772;38.224;2023-06-26T19:51:07;18.70;;;7.50;;
58240;SDS011;45058;55.772;38.224;2023-06-26T19:53:33;9.02;;;6.57;;
58240;SDS011;45058;55.772;38.224;2023-06-26T19:55:59;14.13;;;6.65;;
58240;SDS011;45058;55.772;38.224;2023-06-26T19:58:26;15.77;;;7.40;;
58240;SDS011;45058;55.772;38.224;2023-06-26T20:00:52;11.85;;;6.68;;
58240;SDS011;45058;55.772;38.224;2023-06-26T20:03:30;19.02;;;7.32;;
58240;SDS011;45058;55.772;38.224;2023-06-26T20:05:56;13.07;;;8.02;;
58240;SDS011;45058;55.772;38.224;2023-06-26T20:08:35;17.35;;;7.78;;
58240;SDS011;45058;55.772;38.224;2023-06-26T20:11:13;17.23;;;7.93;;
58240;SDS011;45058;55.772;38.224;2023-06-26T20:13:39;15.63;;;8.00;;
58240;SDS011;45058;55.772;38.224;2023-06-26T20:16:05;11.18;;;6.57;;
58240;SDS011;45058;55.772;38.224;2023-06-26T20:18:32;15.15;;;8.32;;
58240;SDS011;45058;55.772;38.224;2023-06-26T20:20:58;19.38;;;8.07;;
58240;SDS011;45058;55.772;38.224;2023-06-26T20:23:24;12.68;;;6.85;;
58240;SDS011;45058;55.772;38.224;2023-06-26T20:25:50;11.95;;;7.43;;
58240;SDS011;45058;55.772;38.224;2023-06-26T20:28:29;13.32;;;7.95;;
58240;SDS011;45058;55.772;38.224;2023-06-26T20:30:55;15.52;;;6.53;;
58240;SDS011;45058;55.772;38.224;2023-06-26T20:33:33;12.10;;;6.70;;
58240;SDS011;45058;55.772;38.224;2023-06-26T20:35:59;12.38;;;6.43;;
58240;SDS011;45058;55.772;38.224;2023-06-26T20:38:25;14.75;;;6.63;;
58240;SDS011;45058;55.772;38.224;2023-06-26T20:40:51;14.10;;;6.85;;
58240;SDS011;45058;55.772;38.224;2023-06-26T20:43:17;10.35;;;6.85;;
58240;SDS011;45058;55.772;38.224;2023-06-26T20:45:44;13.73;;;7.35;;
58240;SDS011;45058;55.772;38.224;2023-06-26T20:48:10;11.48;;;6.50;;
58240;SDS011;45058;55.772;38.224;2023-06-26T20:50:37;10.93;;;7.18;;
58240;SDS011;45058;55.772;38.224;2023-06-26T20:53:03;15.70;;;7.35;;
58240;SDS011;45058;55.772;38.224;2023-06-26T20:55:41;10.75;;;6.28;;
58240;SDS011;45058;55.772;38.224;2023-06-26T20:58:08;11.80;;;7.50;;
58240;SDS011;45058;55.772;38.224;2023-06-26T21:00:34;12.18;;;6.97;;
58240;SDS011;45058;55.772;38.224;2023-06-26T21:03:00;13.93;;;7.03;;
58240;SDS011;45058;55.772;38.224;2023-06-26T21:05:26;10.95;;;7.15;;
58240;SDS011;45058;55.772;38.224;2023-06-26T21:07:53;12.27;;;7.57;;
58240;SDS011;45058;55.772;38.224;2023-06-26T21:10:19;14.55;;;7.05;;
58240;SDS011;45058;55.772;38.224;2023-06-26T21:12:46;22.77;;;7.57;;
58240;SDS011;45058;55.772;38.224;2023-06-26T21:15:12;10.63;;;7.60;;
58240;SDS011;45058;55.772;38.224;2023-06-26T21:17:38;10.32;;;7.40;;
58240;SDS011;45058;55.772;38.224;2023-06-26T21:20:05;13.40;;;7.82;;
58240;SDS011;45058;55.772;38.224;2023-06-26T21:22:31;14.05;;;7.53;;
58240;SDS011;45058;55.772;38.224;2023-06-26T21:24:57;9.85;;;6.55;;
58240;SDS011;45058;55.772;38.224;2023-06-26T21:27:23;12.70;;;6.72;;
58240;SDS011;45058;55.772;38.224;2023-06-26T21:29:50;12.32;;;7.13;;
58240;SDS011;45058;55.772;38.224;2023-06-26T21:32:16;9.48;;;6.53;;
58240;SDS011;45058;55.772;38.224;2023-06-26T21:34:42;14.73;;;7.05;;
58240;SDS011;45058;55.772;38.224;2023-06-26T21:37:20;13.05;;;7.15;;
58240;SDS011;45058;55.772;38.224;2023-06-26T21:39:46;13.23;;;7.38;;
58240;SDS011;45058;55.772;38.224;2023-06-26T21:42:12;12.57;;;7.53;;
58240;SDS011;45058;55.772;38.224;2023-06-26T21:44:38;15.32;;;8.30;;
58240;SDS011;45058;55.772;38.224;2023-06-26T21:47:05;15.52;;;8.35;;
58240;SDS011;45058;55.772;38.224;2023-06-26T21:49:31;15.73;;;7.53;;
58240;SDS011;45058;55.772;38.224;2023-06-26T21:51:57;16.70;;;8.40;;
58240;SDS011;45058;55.772;38.224;2023-06-26T21:54:23;12.35;;;7.47;;
58240;SDS011;45058;55.772;38.224;2023-06-26T21:57:01;13.98;;;7.65;;
58240;SDS011;45058;55.772;38.224;2023-06-26T21:59:27;18.20;;;7.78;;
58240;SDS011;45058;55.772;38.224;2023-06-26T22:01:53;13.13;;;7.50;;
58240;SDS011;45058;55.772;38.224;2023-06-26T22:04:19;12.10;;;7.45;;
58240;SDS011;45058;55.772;38.224;2023-06-26T22:06:45;14.57;;;7.43;;
58240;SDS011;45058;55.772;38.224;2023-06-26T22:09:11;14.45;;;7.65;;
58240;SDS011;45058;55.772;38.224;2023-06-26T22:11:50;12.80;;;7.40;;
58240;SDS011;45058;55.772;38.224;2023-06-26T22:14:16;21.85;;;8.45;;
58240;SDS011;45058;55.772;38.224;2023-06-26T22:16:42;19.30;;;7.95;;
58240;SDS011;45058;55.772;38.224;2023-06-26T22:19:08;17.05;;;7.50;;
58240;SDS011;45058;55.772;38.224;2023-06-26T22:21:34;12.38;;;7.88;;
58240;SDS011;45058;55.772;38.224;2023-06-26T22:24:01;17.88;;;7.85;;
58240;SDS011;45058;55.772;38.224;2023-06-26T22:26:27;12.85;;;8.43;;
58240;SDS011;45058;55.772;38.224;2023-06-26T22:28:53;10.52;;;7.43;;
58240;SDS011;45058;55.772;38.224;2023-06-26T22:31:19;19.88;;;7.55;;
58240;SDS011;45058;55.772;38.224;2023-06-26T22:33:45;16.60;;;7.70;;
58240;SDS011;45058;55.772;38.224;2023-06-26T22:36:11;15.20;;;8.02;;
58240;SDS011;45058;55.772;38.224;2023-06-26T22:38:37;16.23;;;8.18;;
58240;SDS011;45058;55.772;38.224;2023-06-26T22:41:04;14.43;;;7.97;;
58240;SDS011;45058;55.772;38.224;2023-06-26T22:43:30;12.65;;;7.47;;
58240;SDS011;45058;55.772;38.224;2023-06-26T22:45:56;15.60;;;7.65;;
58240;SDS011;45058;55.772;38.224;2023-06-26T22:48:22;18.92;;;8.38;;
58240;SDS011;45058;55.772;38.224;2023-06-26T22:50:48;15.07;;;8.02;;
58240;SDS011;45058;55.772;38.224;2023-06-26T22:53:14;19.27;;;8.25;;
58240;SDS011;45058;55.772;38.224;2023-06-26T22:55:44;15.63;;;6.93;;
58240;SDS011;45058;55.772;38.224;2023-06-26T22:58:10;15.27;;;8.18;;
58240;SDS011;45058;55.772;38.224;2023-06-26T23:00:37;17.80;;;8.10;;
58240;SDS011;45058;55.772;38.224;2023-06-26T23:03:05;21.33;;;7.90;;
58240;SDS011;45058;55.772;38.224;2023-06-26T23:05:32;13.82;;;7.50;;
58240;SDS011;45058;55.772;38.224;2023-06-26T23:07:58;17.65;;;7.30;;
58240;SDS011;45058;55.772;38.224;2023-06-26T23:10:27;23.67;;;8.07;;
58240;SDS011;45058;55.772;38.224;2023-06-26T23:12:53;19.90;;;8.00;;